メインページ
METAR-TAF:

METAR-TAF

空港 :

ノヴォシビルスク, ロシア

トルマチョーヴォ空港

緯度: 55-01N, 経度: 082-38E, 海抜: 111m

現時点の気象観測

当レポートは26分前の01:30(UTC)に作成
西の風 8kt
気温 19°C
湿度 83%
気圧 1008 hPa
視程10km以上
1,500メートル以下は雲なし、積乱雲なし

METAR: UNNT 260130Z 28004MPS CAVOK 19/16 Q1008 R25/090070 R16/090070 NOSIG RMK QFE746/0995

時間: 08:56 (01:56 UTC)


TAF: 見つかりません

4,000以上の空港の気象観測と天気予報(METAR報とTAF報)

利用可能な観測所は地図上に黄色い丸と赤い丸で示す。

丸の上にカーソルを重ねると観測所名を参照できる。

次にクリックすると気象観測と天気予報を参照できる。

マップの切り替え:黒色「×」印の緑ボタンをクリックして拡大、「-」印の緑ボタンをクリックして縮小、緑色の三角印をクリックして隣りの地図に切り替え


METAR-TAF: